createdAt,value
2023-04-16T00:02:14.873Z,6.91
2023-04-16T00:04:42.299Z,6.86
2023-04-16T00:07:09.727Z,6.83
2023-04-16T00:09:36.929Z,6.67
2023-04-16T00:12:05.087Z,6.46
2023-04-16T00:14:32.258Z,6.32
2023-04-16T00:16:59.610Z,6.33
2023-04-16T00:19:26.998Z,6.26
2023-04-16T00:21:54.292Z,6.20
2023-04-16T00:24:21.427Z,6.07
2023-04-16T00:26:48.722Z,6.13
2023-04-16T00:29:15.899Z,6.09
2023-04-16T00:31:43.159Z,6.18
2023-04-16T00:34:10.514Z,6.28
2023-04-16T00:36:37.649Z,6.26
2023-04-16T00:39:05.602Z,6.14
2023-04-16T00:41:32.840Z,6.10
2023-04-16T00:44:00.096Z,6.08
2023-04-16T00:46:27.781Z,5.92
2023-04-16T00:48:56.446Z,5.93
2023-04-16T00:51:23.887Z,5.98
2023-04-16T00:53:51.152Z,6.03
2023-04-16T00:56:20.530Z,6.08
2023-04-16T00:58:49.472Z,6.20
2023-04-16T01:01:16.992Z,6.36
2023-04-16T01:03:48.033Z,6.38
2023-04-16T01:06:18.064Z,6.34
2023-04-16T01:08:46.970Z,6.36
2023-04-16T01:11:16.028Z,6.33
2023-04-16T01:13:43.577Z,6.16
2023-04-16T01:16:13.038Z,6.12
2023-04-16T01:18:40.270Z,6.09
2023-04-16T01:21:07.925Z,6.07
2023-04-16T01:23:35.169Z,6.04
2023-04-16T01:26:02.949Z,6.09
2023-04-16T01:28:30.395Z,6.05
2023-04-16T01:30:57.727Z,6.04
2023-04-16T01:33:35.871Z,6.14
2023-04-16T01:36:03.191Z,6.20
2023-04-16T01:38:30.368Z,6.21
2023-04-16T01:40:59.614Z,6.01
2023-04-16T01:43:26.947Z,5.99
2023-04-16T01:46:14.369Z,5.95
2023-04-16T01:48:42.059Z,5.98
2023-04-16T01:51:10.116Z,5.79
2023-04-16T01:53:37.642Z,5.70
2023-04-16T01:56:06.164Z,5.69
2023-04-16T01:58:34.282Z,5.60
2023-04-16T02:01:01.895Z,5.41
2023-04-16T02:03:29.383Z,5.41
2023-04-16T02:05:56.707Z,5.36
2023-04-16T02:08:24.129Z,5.43
2023-04-16T02:10:51.442Z,5.39
2023-04-16T02:13:18.724Z,5.48
2023-04-16T02:15:49.768Z,5.46
2023-04-16T02:18:22.539Z,5.37
2023-04-16T02:20:50.218Z,5.23
2023-04-16T02:23:18.505Z,5.18
2023-04-16T02:25:47.980Z,5.25
2023-04-16T02:28:17.226Z,5.41
2023-04-16T02:30:46.497Z,5.42
2023-04-16T02:33:16.001Z,5.33
2023-04-16T02:35:54.014Z,5.28
2023-04-16T02:38:21.569Z,5.28
2023-04-16T02:40:48.845Z,5.50
2023-04-16T02:43:17.216Z,5.86
2023-04-16T02:45:44.890Z,5.77
2023-04-16T02:48:12.166Z,5.69
2023-04-16T02:50:39.454Z,5.62
2023-04-16T02:53:07.838Z,5.31
2023-04-16T02:55:35.152Z,5.25
2023-04-16T02:58:02.344Z,5.20
2023-04-16T03:00:29.778Z,5.31
2023-04-16T03:02:57.302Z,5.29
2023-04-16T03:05:24.756Z,5.19
2023-04-16T03:07:56.783Z,5.09
2023-04-16T03:10:24.306Z,4.97
2023-04-16T03:12:51.702Z,4.94
2023-04-16T03:15:18.912Z,4.95
2023-04-16T03:17:46.096Z,4.99
2023-04-16T03:20:14.564Z,4.96
2023-04-16T03:22:42.005Z,4.93
2023-04-16T03:25:09.817Z,5.07
2023-04-16T03:27:37.218Z,5.18
2023-04-16T03:30:06.564Z,5.07
2023-04-16T03:32:36.136Z,4.92
2023-04-16T03:35:09.115Z,4.94
2023-04-16T03:37:37.418Z,4.90
2023-04-16T03:40:08.363Z,4.89
2023-04-16T03:42:35.645Z,4.94
2023-04-16T03:45:03.891Z,5.05
2023-04-16T03:47:32.281Z,5.20
2023-04-16T03:50:02.743Z,5.10
2023-04-16T03:52:30.048Z,5.10
2023-04-16T03:54:57.486Z,5.02
2023-04-16T03:57:27.579Z,4.95
2023-04-16T03:59:59.244Z,4.84
2023-04-16T04:02:29.981Z,4.89
2023-04-16T04:04:57.322Z,4.98
2023-04-16T04:07:24.632Z,5.02
2023-04-16T04:09:52.889Z,5.04
2023-04-16T04:12:20.078Z,5.20
2023-04-16T04:14:48.089Z,5.29
2023-04-16T04:17:15.634Z,5.40
2023-04-16T04:19:54.222Z,5.58
2023-04-16T04:22:28.433Z,5.75
2023-04-16T04:24:55.738Z,6.05
2023-04-16T04:27:23.391Z,6.20
2023-04-16T04:29:50.707Z,6.40
2023-04-16T04:32:18.033Z,6.59
2023-04-16T04:34:46.370Z,6.80
2023-04-16T04:37:13.719Z,7.07
2023-04-16T04:39:41.246Z,6.78
2023-04-16T04:42:09.358Z,7.04
2023-04-16T04:44:36.756Z,7.16
2023-04-16T04:47:03.984Z,7.09
2023-04-16T04:49:32.617Z,7.14
2023-04-16T04:51:59.955Z,7.32
2023-04-16T04:54:28.231Z,7.75
2023-04-16T04:56:56.645Z,7.70
2023-04-16T04:59:25.265Z,7.60
2023-04-16T05:01:52.960Z,7.75
2023-04-16T05:04:20.680Z,8.01
2023-04-16T05:06:47.989Z,8.36
2023-04-16T05:09:15.713Z,8.80
2023-04-16T05:11:43.280Z,9.06
2023-04-16T05:14:10.664Z,9.48
2023-04-16T05:16:38.507Z,9.93
2023-04-16T05:19:05.864Z,10.23
2023-04-16T05:21:34.057Z,10.94
2023-04-16T05:24:01.299Z,11.50
2023-04-16T05:26:28.530Z,12.14
2023-04-16T05:28:55.988Z,12.93
2023-04-16T05:31:23.283Z,13.61
2023-04-16T05:33:50.551Z,13.60
2023-04-16T05:36:17.741Z,14.28
2023-04-16T05:38:45.115Z,14.61
2023-04-16T05:41:12.400Z,15.31
2023-04-16T05:43:39.658Z,16.12
2023-04-16T05:46:06.988Z,17.22
2023-04-16T05:48:34.200Z,17.30
2023-04-16T05:51:02.812Z,17.03
2023-04-16T05:53:30.183Z,17.49
2023-04-16T05:55:57.500Z,17.59
2023-04-16T05:58:24.703Z,18.28
2023-04-16T06:00:51.968Z,18.48
2023-04-16T06:03:19.283Z,18.47
2023-04-16T06:05:46.596Z,18.42
2023-04-16T06:08:13.928Z,18.36
2023-04-16T06:10:41.238Z,17.30
2023-04-16T06:13:08.423Z,18.57
2023-04-16T06:15:35.806Z,19.22
2023-04-16T06:18:03.085Z,19.77
2023-04-16T06:20:30.713Z,20.88
2023-04-16T06:22:58.018Z,20.91
2023-04-16T06:25:25.505Z,21.07
2023-04-16T06:27:52.771Z,21.79
2023-04-16T06:30:20.273Z,22.32
2023-04-16T06:32:48.168Z,23.06
2023-04-16T06:35:15.533Z,22.57
2023-04-16T06:37:42.931Z,21.85
2023-04-16T06:40:10.922Z,21.71
2023-04-16T06:42:38.232Z,22.22
2023-04-16T06:45:06.321Z,22.45
2023-04-16T06:47:33.826Z,23.17
2023-04-16T06:50:01.311Z,23.19
2023-04-16T06:52:29.596Z,23.12
2023-04-16T06:54:57.347Z,23.64
2023-04-16T06:57:24.721Z,24.64
2023-04-16T06:59:51.985Z,24.56
2023-04-16T07:02:19.441Z,25.42
2023-04-16T07:04:46.764Z,25.38
2023-04-16T07:07:14.057Z,25.73
2023-04-16T07:09:41.463Z,26.64
2023-04-16T07:12:08.930Z,23.68
2023-04-16T07:14:36.335Z,21.32
2023-04-16T07:17:03.554Z,24.04
2023-04-16T07:19:32.796Z,24.67
2023-04-16T07:22:03.593Z,25.30
2023-04-16T07:24:31.250Z,25.55
2023-04-16T07:26:58.491Z,24.01
2023-04-16T07:29:25.805Z,24.53
2023-04-16T07:31:53.120Z,21.23
2023-04-16T07:34:20.573Z,19.15
2023-04-16T07:36:47.926Z,17.56
2023-04-16T07:39:15.225Z,16.93
2023-04-16T07:41:43.289Z,16.24
2023-04-16T07:44:10.966Z,15.02
2023-04-16T07:46:46.460Z,16.39
2023-04-16T07:49:15.612Z,17.10
2023-04-16T07:51:43.130Z,20.86
2023-04-16T07:54:11.158Z,20.10
2023-04-16T07:56:38.664Z,20.08
2023-04-16T07:59:19.094Z,19.78
2023-04-16T08:01:50.158Z,20.04
2023-04-16T08:04:23.266Z,17.77
2023-04-16T08:06:51.984Z,17.60
2023-04-16T08:09:26.611Z,17.28
2023-04-16T08:11:53.982Z,17.34
2023-04-16T08:14:21.373Z,17.11
2023-04-16T08:16:48.695Z,18.10
2023-04-16T08:19:16.198Z,18.42
2023-04-16T08:21:43.779Z,22.76
2023-04-16T08:24:11.735Z,26.26
2023-04-16T08:26:39.005Z,27.74
2023-04-16T08:29:06.280Z,25.29
2023-04-16T08:31:34.078Z,22.92
2023-04-16T08:34:01.992Z,21.21
2023-04-16T08:36:29.729Z,22.98
2023-04-16T08:38:57.012Z,26.74
2023-04-16T08:41:25.379Z,27.83
2023-04-16T08:43:56.422Z,29.49
2023-04-16T08:46:26.910Z,28.98
2023-04-16T08:48:58.269Z,24.73
2023-04-16T08:51:30.041Z,26.78
2023-04-16T08:54:14.996Z,25.23
2023-04-16T08:56:43.305Z,23.10
2023-04-16T09:01:41.606Z,23.07
2023-04-16T09:04:09.753Z,21.48
2023-04-16T09:06:38.265Z,23.18
2023-04-16T09:09:06.618Z,24.86
2023-04-16T09:11:34.616Z,28.14
2023-04-16T09:14:02.439Z,29.62
2023-04-16T09:16:34.459Z,29.12
2023-04-16T09:19:01.915Z,24.51
2023-04-16T09:21:29.324Z,22.18
2023-04-16T09:23:56.954Z,19.85
2023-04-16T09:26:24.598Z,18.92
2023-04-16T09:28:51.958Z,18.08
2023-04-16T09:31:20.203Z,17.88
2023-04-16T09:34:09.738Z,17.19
2023-04-16T09:36:37.515Z,17.66
2023-04-16T09:39:04.991Z,17.85
2023-04-16T09:41:36.217Z,18.49
2023-04-16T09:44:05.565Z,18.83
2023-04-16T09:46:42.971Z,18.67
2023-04-16T09:49:11.086Z,23.57
2023-04-16T09:51:42.843Z,26.13
2023-04-16T09:54:10.726Z,25.94
2023-04-16T09:56:44.750Z,24.59
2023-04-16T09:59:22.940Z,22.86
2023-04-16T10:01:53.423Z,21.80
2023-04-16T10:04:51.775Z,20.43
2023-04-16T10:07:20.383Z,20.58
2023-04-16T10:09:49.265Z,23.60
2023-04-16T10:12:17.107Z,26.86
2023-04-16T10:14:44.698Z,25.34
2023-04-16T10:17:12.409Z,22.82
2023-04-16T10:19:40.573Z,20.67
2023-04-16T10:22:08.093Z,20.22
2023-04-16T10:24:35.831Z,20.13
2023-04-16T10:27:03.259Z,20.73
2023-04-16T10:29:31.994Z,19.89
2023-04-16T10:32:01.221Z,20.24
2023-04-16T10:34:31.415Z,19.55
2023-04-16T10:36:58.677Z,19.02
2023-04-16T10:39:29.726Z,19.00
2023-04-16T10:42:12.321Z,19.11
2023-04-16T10:44:43.641Z,18.86
2023-04-16T10:47:14.081Z,18.64
2023-04-16T10:49:42.733Z,18.83
2023-04-16T10:52:22.437Z,18.70
2023-04-16T10:54:50.129Z,19.31
2023-04-16T10:57:19.970Z,19.73
2023-04-16T10:59:49.554Z,20.31
2023-04-16T11:02:18.928Z,19.65
2023-04-16T11:04:49.097Z,19.30
2023-04-16T11:07:20.560Z,19.87
2023-04-16T11:10:05.478Z,19.98
2023-04-16T11:12:40.582Z,19.29
2023-04-16T11:15:10.345Z,18.55
2023-04-16T11:17:44.443Z,19.03
2023-04-16T11:20:23.532Z,19.28
2023-04-16T11:22:52.958Z,19.39
2023-04-16T11:25:34.230Z,20.67
2023-04-16T11:28:02.751Z,22.20
2023-04-16T11:30:36.045Z,21.27
2023-04-16T11:33:11.977Z,20.59
2023-04-16T11:35:40.277Z,20.44
2023-04-16T11:38:07.932Z,20.98
2023-04-16T11:40:36.377Z,22.13
2023-04-16T11:43:15.450Z,23.64
2023-04-16T11:46:07.525Z,23.91
2023-04-16T11:48:52.303Z,23.01
2023-04-16T11:51:20.762Z,23.49
2023-04-16T11:53:50.765Z,24.26
2023-04-16T11:56:30.235Z,24.85
2023-04-16T11:59:18.922Z,23.61
2023-04-16T12:01:52.733Z,22.66
2023-04-16T12:04:25.146Z,20.91
2023-04-16T12:07:13.561Z,19.94
2023-04-16T12:09:44.678Z,19.76
2023-04-16T12:12:32.668Z,19.64
2023-04-16T12:15:03.925Z,19.36
2023-04-16T12:17:33.723Z,19.64
2023-04-16T12:20:09.924Z,19.63
2023-04-16T12:22:40.163Z,19.84
2023-04-16T12:25:17.675Z,19.42
2023-04-16T12:27:55.644Z,19.76
2023-04-16T12:30:26.152Z,20.14
2023-04-16T12:33:19.464Z,20.77
2023-04-16T12:35:47.170Z,20.69
2023-04-16T12:38:17.602Z,20.50
2023-04-16T12:40:45.266Z,19.90
2023-04-16T12:43:12.740Z,19.45
2023-04-16T12:45:40.875Z,19.35
2023-04-16T12:48:08.195Z,18.47
2023-04-16T12:50:35.599Z,18.35
2023-04-16T12:53:02.874Z,18.53
2023-04-16T12:55:30.565Z,18.71
2023-04-16T12:57:58.128Z,18.45
2023-04-16T13:00:25.491Z,18.43
2023-04-16T13:02:52.886Z,18.79
2023-04-16T13:05:20.518Z,18.93
2023-04-16T13:07:47.817Z,19.17
2023-04-16T13:10:15.056Z,19.32
2023-04-16T13:12:42.379Z,19.81
2023-04-16T13:15:10.627Z,19.59
2023-04-16T13:17:38.001Z,19.18
2023-04-16T13:20:05.945Z,18.63
2023-04-16T13:22:33.604Z,18.79
2023-04-16T13:25:00.941Z,19.14
2023-04-16T13:27:28.400Z,19.24
2023-04-16T13:29:55.928Z,18.77
2023-04-16T13:32:23.345Z,19.58
2023-04-16T13:34:50.902Z,19.83
2023-04-16T13:37:18.252Z,19.26
2023-04-16T13:39:46.083Z,18.98
2023-04-16T13:42:13.460Z,19.31
2023-04-16T13:44:41.166Z,19.26
2023-04-16T13:47:08.765Z,18.89
2023-04-16T13:49:36.371Z,18.94
2023-04-16T13:52:04.051Z,19.83
2023-04-16T13:54:31.337Z,20.13
2023-04-16T13:56:58.641Z,19.63
2023-04-16T13:59:26.601Z,19.55
2023-04-16T14:01:54.063Z,19.07
2023-04-16T14:04:22.552Z,18.91
2023-04-16T14:06:50.782Z,18.99
2023-04-16T14:09:18.086Z,18.78
2023-04-16T14:11:45.559Z,18.43
2023-04-16T14:14:12.929Z,17.72
2023-04-16T14:16:40.404Z,17.40
2023-04-16T14:19:07.803Z,17.29
2023-04-16T14:21:35.132Z,17.51
2023-04-16T14:24:03.164Z,17.47
2023-04-16T14:26:30.645Z,17.47
2023-04-16T14:28:57.837Z,17.61
2023-04-16T14:31:25.746Z,18.01
2023-04-16T14:33:53.174Z,18.09
2023-04-16T14:36:20.590Z,18.10
2023-04-16T14:38:48.694Z,18.40
2023-04-16T14:41:15.915Z,18.15
2023-04-16T14:43:44.403Z,18.31
2023-04-16T14:46:11.717Z,18.29
2023-04-16T14:48:38.929Z,18.26
2023-04-16T14:51:07.296Z,18.27
2023-04-16T14:53:36.267Z,18.34
2023-04-16T14:56:04.320Z,18.64
2023-04-16T14:58:32.100Z,18.34
2023-04-16T15:00:59.687Z,18.24
2023-04-16T15:03:27.510Z,18.29
2023-04-16T15:05:55.838Z,18.43
2023-04-16T15:08:24.462Z,18.12
2023-04-16T15:10:52.066Z,17.20
2023-04-16T15:13:19.573Z,16.90
2023-04-16T15:15:46.920Z,16.49
2023-04-16T15:18:14.269Z,16.42
2023-04-16T15:20:41.588Z,16.66
2023-04-16T15:23:08.829Z,16.98
2023-04-16T15:25:36.234Z,17.19
2023-04-16T15:28:03.528Z,17.31
2023-04-16T15:30:31.632Z,17.25
2023-04-16T15:32:58.950Z,17.38
2023-04-16T15:35:26.236Z,17.33
2023-04-16T15:37:53.971Z,17.18
2023-04-16T15:40:21.384Z,17.28
2023-04-16T15:42:48.943Z,17.26
2023-04-16T15:45:16.272Z,17.15
2023-04-16T15:47:45.474Z,17.25
2023-04-16T15:50:12.737Z,17.30
2023-04-16T15:52:40.437Z,17.37
2023-04-16T15:55:07.985Z,17.32
2023-04-16T15:57:35.908Z,17.40
2023-04-16T16:00:13.507Z,17.39
2023-04-16T16:02:42.082Z,17.34
2023-04-16T16:05:16.593Z,17.22
2023-04-16T16:07:44.092Z,17.26
2023-04-16T16:10:13.170Z,17.16
2023-04-16T16:12:41.547Z,16.74
2023-04-16T16:15:11.151Z,16.89
2023-04-16T16:17:39.337Z,16.94
2023-04-16T16:20:10.828Z,16.92
2023-04-16T16:22:39.174Z,16.91
2023-04-16T16:25:07.320Z,16.79
2023-04-16T16:27:36.202Z,16.56
2023-04-16T16:30:06.674Z,16.55
2023-04-16T16:32:34.170Z,16.40
2023-04-16T16:35:01.556Z,16.38
2023-04-16T16:37:29.439Z,16.28
2023-04-16T16:39:56.808Z,16.17
2023-04-16T16:42:24.190Z,16.04
2023-04-16T16:44:51.492Z,15.94
2023-04-16T16:47:18.905Z,15.92
2023-04-16T16:49:46.226Z,15.83
2023-04-16T16:52:13.499Z,15.72
2023-04-16T16:54:42.800Z,15.63
2023-04-16T16:57:10.086Z,15.72
2023-04-16T16:59:37.512Z,15.72
2023-04-16T17:02:04.786Z,15.56
2023-04-16T17:04:32.251Z,15.38
2023-04-16T17:06:59.537Z,15.22
2023-04-16T17:09:26.873Z,15.19
2023-04-16T17:11:54.170Z,15.16
2023-04-16T17:14:21.399Z,14.99
2023-04-16T17:16:50.065Z,14.88
2023-04-16T17:19:18.040Z,14.89
2023-04-16T17:21:45.592Z,14.80
2023-04-16T17:24:13.079Z,14.85
2023-04-16T17:26:41.182Z,14.83
2023-04-16T17:29:08.556Z,14.76
2023-04-16T17:31:36.219Z,14.69
2023-04-16T17:34:05.905Z,14.48
2023-04-16T17:36:33.372Z,14.52
2023-04-16T17:39:00.807Z,14.46
2023-04-16T17:41:28.084Z,14.41
2023-04-16T17:43:55.331Z,14.32
2023-04-16T17:46:22.756Z,14.29
2023-04-16T17:48:50.205Z,14.15
2023-04-16T17:51:17.617Z,14.12
2023-04-16T17:53:45.230Z,14.03
2023-04-16T17:56:14.100Z,13.88
2023-04-16T17:58:41.364Z,13.77
2023-04-16T18:01:08.861Z,13.72
2023-04-16T18:03:37.265Z,13.67
2023-04-16T18:06:04.847Z,13.68
2023-04-16T18:08:32.165Z,13.64
2023-04-16T18:10:59.502Z,13.59
2023-04-16T18:13:27.281Z,13.61
2023-04-16T18:15:54.719Z,13.49
2023-04-16T18:18:22.022Z,13.38
2023-04-16T18:20:49.240Z,13.38
2023-04-16T18:23:16.363Z,13.38
2023-04-16T18:25:44.572Z,13.43
2023-04-16T18:28:14.029Z,13.42
2023-04-16T18:30:41.953Z,13.53
2023-04-16T18:35:40.696Z,13.35
2023-04-16T18:38:08.096Z,13.26
2023-04-16T18:40:37.331Z,13.29
2023-04-16T18:43:04.983Z,13.26
2023-04-16T18:45:34.354Z,13.34
2023-04-16T18:48:04.262Z,13.34
2023-04-16T18:50:32.049Z,13.26
2023-04-16T18:52:59.393Z,13.37
2023-04-16T18:55:26.741Z,13.32
2023-04-16T18:57:55.218Z,13.29
2023-04-16T19:00:22.781Z,13.37
2023-04-16T19:02:50.225Z,13.34
2023-04-16T19:05:17.973Z,13.32
2023-04-16T19:07:45.905Z,13.41
2023-04-16T19:10:13.268Z,13.39
2023-04-16T19:12:40.967Z,13.30
2023-04-16T19:15:08.773Z,13.22
2023-04-16T19:17:36.321Z,13.06
2023-04-16T19:20:08.146Z,13.04
2023-04-16T19:22:35.618Z,12.96
2023-04-16T19:25:03.151Z,12.92
2023-04-16T19:27:30.535Z,12.84
2023-04-16T19:29:58.157Z,12.77
2023-04-16T19:32:25.510Z,12.62
2023-04-16T19:34:52.884Z,12.57
2023-04-16T19:37:20.185Z,12.58
2023-04-16T19:39:47.739Z,12.56
2023-04-16T19:42:15.751Z,12.39
2023-04-16T19:44:42.966Z,12.31
2023-04-16T19:47:10.722Z,12.43
2023-04-16T19:49:38.456Z,12.30
2023-04-16T19:52:05.751Z,12.24
2023-04-16T19:54:34.883Z,12.26
2023-04-16T19:57:02.608Z,12.08
2023-04-16T19:59:32.249Z,12.10
2023-04-16T20:01:59.713Z,12.06
2023-04-16T20:04:27.358Z,12.06
2023-04-16T20:06:54.782Z,12.01
2023-04-16T20:09:22.269Z,12.01
2023-04-16T20:11:49.494Z,11.92
2023-04-16T20:14:17.328Z,11.85
2023-04-16T20:16:44.611Z,11.80
2023-04-16T20:19:18.698Z,11.76
2023-04-16T20:21:46.228Z,11.68
2023-04-16T20:24:15.551Z,11.66
2023-04-16T20:26:42.881Z,11.59
2023-04-16T20:29:10.562Z,11.53
2023-04-16T20:31:38.077Z,11.46
2023-04-16T20:34:05.441Z,11.43
2023-04-16T20:36:33.172Z,11.40
2023-04-16T20:39:02.363Z,11.35
2023-04-16T20:41:30.413Z,11.29
2023-04-16T20:43:58.016Z,11.08
2023-04-16T20:46:26.060Z,10.89
2023-04-16T20:48:53.515Z,10.68
2023-04-16T20:51:21.730Z,10.55
2023-04-16T20:53:52.185Z,10.49
2023-04-16T20:56:19.683Z,10.53
2023-04-16T20:58:47.029Z,10.55
2023-04-16T21:01:14.442Z,10.45
2023-04-16T21:03:41.809Z,10.42
2023-04-16T21:06:09.261Z,10.25
2023-04-16T21:08:36.967Z,10.25
2023-04-16T21:11:04.525Z,10.29
2023-04-16T21:13:32.017Z,10.19
2023-04-16T21:15:59.575Z,10.08
2023-04-16T21:18:27.245Z,9.89
2023-04-16T21:20:55.685Z,9.78
2023-04-16T21:23:23.105Z,9.69
2023-04-16T21:25:50.509Z,9.63
2023-04-16T21:28:17.934Z,9.52
2023-04-16T21:30:45.442Z,9.45
2023-04-16T21:33:14.791Z,9.42
2023-04-16T21:35:42.042Z,9.40
2023-04-16T21:38:09.423Z,9.51
2023-04-16T21:40:36.663Z,9.56
2023-04-16T21:43:03.974Z,9.66
2023-04-16T21:45:31.523Z,9.59
2023-04-16T21:47:59.018Z,9.61
2023-04-16T21:50:26.539Z,9.70
2023-04-16T21:52:54.879Z,9.76
2023-04-16T21:55:22.228Z,9.67
2023-04-16T21:57:49.418Z,9.81
2023-04-16T22:00:18.431Z,9.83
2023-04-16T22:02:46.014Z,9.84
2023-04-16T22:05:13.432Z,9.87
2023-04-16T22:07:40.792Z,9.92
2023-04-16T22:10:10.012Z,10.01
2023-04-16T22:12:37.950Z,9.99
2023-04-16T22:15:07.292Z,10.04
2023-04-16T22:17:34.882Z,10.10
2023-04-16T22:20:07.104Z,10.13
2023-04-16T22:22:34.847Z,10.11
2023-04-16T22:25:02.358Z,10.21
2023-04-16T22:27:29.905Z,10.28
2023-04-16T22:29:57.128Z,10.36
2023-04-16T22:32:24.519Z,10.44
2023-04-16T22:34:52.391Z,10.45
2023-04-16T22:37:19.721Z,10.46
2023-04-16T22:39:46.995Z,10.44
2023-04-16T22:42:14.284Z,10.24
2023-04-16T22:44:41.488Z,10.19
2023-04-16T22:47:08.809Z,10.21
2023-04-16T22:49:36.307Z,10.28
2023-04-16T22:52:03.662Z,10.33
2023-04-16T22:54:31.974Z,10.24
2023-04-16T22:56:59.442Z,10.07
2023-04-16T22:59:26.674Z,9.95
2023-04-16T23:01:54.061Z,9.62
2023-04-16T23:04:21.454Z,9.37
2023-04-16T23:06:48.817Z,9.31
2023-04-16T23:09:16.032Z,9.23
2023-04-16T23:11:43.306Z,9.07
2023-04-16T23:14:10.455Z,9.06
2023-04-16T23:16:37.659Z,9.15
2023-04-16T23:19:04.887Z,8.99
2023-04-16T23:21:32.566Z,8.76
2023-04-16T23:23:59.705Z,8.81
2023-04-16T23:26:27.020Z,8.81
2023-04-16T23:28:54.185Z,8.85
2023-04-16T23:31:21.497Z,8.81
2023-04-16T23:33:48.707Z,8.84
2023-04-16T23:36:16.517Z,8.84
2023-04-16T23:38:43.692Z,8.68
2023-04-16T23:41:10.934Z,8.74
2023-04-16T23:43:40.199Z,8.75
2023-04-16T23:46:07.637Z,8.72
2023-04-16T23:48:34.928Z,8.67
2023-04-16T23:51:02.149Z,8.66
2023-04-16T23:53:29.370Z,8.66
2023-04-16T23:55:56.529Z,8.51
2023-04-16T23:58:24.462Z,8.57
